EGLC/LCY METAR and TAF weather

Enter ICAO airport designator
Station Type Date Time Source
EGLC METAR 2020/07/04 09:20 UTC NOAA

EGLC 040920Z AUTO 23014KT 200V260 9999 BKN018 OVC023 20/15 Q1010


Station Type Date Time Source
EGLC Decoded METAR 2020/07/04 09:20 UTC NOAA

London City Airport, United Kingdom (EGLC) 51-30N 000-30W
Jul 04, 2020 - 05:20 AM EDT / 2020.07.04 0920 UTC
Wind: from the SW (230 degrees) at 16 MPH (14 KT) (direction variable):0
Visibility: greater than 7 mile(s):0
Sky conditions: overcast
Temperature: 68 F (20 C)
Dew Point: 59 F (15 C)
Relative Humidity: 72%
Pressure (altimeter): 29.83 in. Hg (1010 hPa)
ob: EGLC 040920Z AUTO 23014KT 200V260 9999 BKN018 OVC023 20/15 Q1010
cycle: 9

Station Type Date Time Source
EGLC TAF 2018/10/15 21:30 UTC NOAA

TAF EGLC 152119Z 1521/1621 CNL

Example: see airport list